sensor_id;sensor_type;location;lat;lon;timestamp;pressure;altitude;pressure_sealevel;temperature;humidity
49030;BME280;43337;52.070;4.508;2023-04-19T00:00:30;102916.50;;;8.24;100.00
49030;BME280;43337;52.070;4.508;2023-04-19T00:02:56;102902.50;;;8.17;100.00
49030;BME280;43337;52.070;4.508;2023-04-19T00:05:22;102874.50;;;8.02;100.00
49030;BME280;43337;52.070;4.508;2023-04-19T00:07:49;102920.03;;;8.23;100.00
49030;BME280;43337;52.070;4.508;2023-04-19T00:10:15;102907.75;;;8.17;100.00
49030;BME280;43337;52.070;4.508;2023-04-19T00:12:41;102916.50;;;8.19;100.00
49030;BME280;43337;52.070;4.508;2023-04-19T00:15:07;102907.75;;;8.17;100.00
49030;BME280;43337;52.070;4.508;2023-04-19T00:17:34;102895.50;;;8.08;100.00
49030;BME280;43337;52.070;4.508;2023-04-19T00:19:59;102903.38;;;8.13;100.00
49030;BME280;43337;52.070;4.508;2023-04-19T00:22:25;102898.09;;;8.07;100.00
49030;BME280;43337;52.070;4.508;2023-04-19T00:24:51;102894.63;;;8.10;100.00
49030;BME280;43337;52.070;4.508;2023-04-19T00:27:16;102906.00;;;8.10;100.00
49030;BME280;43337;52.070;4.508;2023-04-19T00:29:42;102906.88;;;8.07;100.00
49030;BME280;43337;52.070;4.508;2023-04-19T00:32:07;102897.25;;;8.00;100.00
49030;BME280;43337;52.070;4.508;2023-04-19T00:34:32;102884.13;;;7.93;100.00
49030;BME280;43337;52.070;4.508;2023-04-19T00:36:58;102898.09;;;7.99;100.00
49030;BME280;43337;52.070;4.508;2023-04-19T00:39:23;102877.13;;;7.86;100.00
49030;BME280;43337;52.070;4.508;2023-04-19T00:41:48;102897.25;;;7.96;100.00
49030;BME280;43337;52.070;4.508;2023-04-19T00:44:14;102892.84;;;7.92;100.00
49030;BME280;43337;52.070;4.508;2023-04-19T00:46:39;102897.25;;;7.93;100.00
49030;BME280;43337;52.070;4.508;2023-04-19T00:49:05;102896.34;;;7.91;100.00
49030;BME280;43337;52.070;4.508;2023-04-19T00:51:31;102889.34;;;7.80;100.00
49030;BME280;43337;52.070;4.508;2023-04-19T00:53:57;102901.56;;;7.88;100.00
49030;BME280;43337;52.070;4.508;2023-04-19T00:56:23;102898.09;;;7.82;100.00
49030;BME280;43337;52.070;4.508;2023-04-19T00:58:52;102905.06;;;7.82;100.00
49030;BME280;43337;52.070;4.508;2023-04-19T01:01:17;102893.72;;;7.78;100.00
49030;BME280;43337;52.070;4.508;2023-04-19T01:03:45;102898.94;;;7.80;100.00
49030;BME280;43337;52.070;4.508;2023-04-19T01:06:11;102891.09;;;7.78;100.00
49030;BME280;43337;52.070;4.508;2023-04-19T01:08:36;102883.19;;;7.72;100.00
49030;BME280;43337;52.070;4.508;2023-04-19T01:11:02;102888.47;;;7.74;100.00
49030;BME280;43337;52.070;4.508;2023-04-19T01:13:29;102883.19;;;7.71;100.00
49030;BME280;43337;52.070;4.508;2023-04-19T01:15:54;102885.81;;;7.71;100.00
49030;BME280;43337;52.070;4.508;2023-04-19T01:18:21;102876.19;;;7.68;100.00
49030;BME280;43337;52.070;4.508;2023-04-19T01:20:48;102884.94;;;7.70;100.00
49030;BME280;43337;52.070;4.508;2023-04-19T01:23:14;102875.31;;;7.68;100.00
49030;BME280;43337;52.070;4.508;2023-04-19T01:25:39;102875.31;;;7.68;100.00
49030;BME280;43337;52.070;4.508;2023-04-19T01:28:04;102883.19;;;7.68;100.00
49030;BME280;43337;52.070;4.508;2023-04-19T01:30:30;102876.16;;;7.61;100.00
49030;BME280;43337;52.070;4.508;2023-04-19T01:32:56;102870.06;;;7.58;100.00
49030;BME280;43337;52.070;4.508;2023-04-19T01:35:21;102871.81;;;7.58;100.00
49030;BME280;43337;52.070;4.508;2023-04-19T01:37:47;102870.94;;;7.57;100.00
49030;BME280;43337;52.070;4.508;2023-04-19T01:40:12;102873.53;;;7.56;100.00
49030;BME280;43337;52.070;4.508;2023-04-19T01:42:38;102856.91;;;7.43;100.00
49030;BME280;43337;52.070;4.508;2023-04-19T01:45:04;102878.81;;;7.59;100.00
49030;BME280;43337;52.070;4.508;2023-04-19T01:47:29;102875.28;;;7.57;100.00
49030;BME280;43337;52.070;4.508;2023-04-19T01:49:55;102871.81;;;7.58;100.00
49030;BME280;43337;52.070;4.508;2023-04-19T01:52:20;102862.16;;;7.48;100.00
49030;BME280;43337;52.070;4.508;2023-04-19T01:54:47;102865.66;;;7.48;100.00
49030;BME280;43337;52.070;4.508;2023-04-19T01:57:14;102886.66;;;7.56;100.00
49030;BME280;43337;52.070;4.508;2023-04-19T01:59:40;102875.28;;;7.51;100.00
49030;BME280;43337;52.070;4.508;2023-04-19T02:02:06;102875.28;;;7.52;100.00
49030;BME280;43337;52.070;4.508;2023-04-19T02:04:32;102881.41;;;7.54;100.00
49030;BME280;43337;52.070;4.508;2023-04-19T02:06:58;102880.53;;;7.55;100.00
49030;BME280;43337;52.070;4.508;2023-04-19T02:09:23;102870.94;;;7.54;100.00
49030;BME280;43337;52.070;4.508;2023-04-19T02:11:48;102877.06;;;7.58;100.00
49030;BME280;43337;52.070;4.508;2023-04-19T02:14:14;102866.56;;;7.50;100.00
49030;BME280;43337;52.070;4.508;2023-04-19T02:16:39;102870.94;;;7.56;100.00
49030;BME280;43337;52.070;4.508;2023-04-19T02:19:05;102863.94;;;7.53;100.00
49030;BME280;43337;52.070;4.508;2023-04-19T02:21:30;102874.41;;;7.55;100.00
49030;BME280;43337;52.070;4.508;2023-04-19T02:23:56;102839.41;;;7.38;100.00
49030;BME280;43337;52.070;4.508;2023-04-19T02:26:21;102837.66;;;7.37;100.00
49030;BME280;43337;52.070;4.508;2023-04-19T02:28:50;102863.94;;;7.53;100.00
49030;BME280;43337;52.070;4.508;2023-04-19T02:31:15;102858.69;;;7.50;100.00
49030;BME280;43337;52.070;4.508;2023-04-19T02:33:41;102868.31;;;7.56;100.00
49030;BME280;43337;52.070;4.508;2023-04-19T02:36:06;102873.56;;;7.59;100.00
49030;BME280;43337;52.070;4.508;2023-04-19T02:38:32;102881.44;;;7.65;100.00
49030;BME280;43337;52.070;4.508;2023-04-19T02:40:57;102877.06;;;7.67;100.00
49030;BME280;43337;52.070;4.508;2023-04-19T02:43:22;102862.19;;;7.60;100.00
49030;BME280;43337;52.070;4.508;2023-04-19T02:45:49;102874.44;;;7.72;100.00
49030;BME280;43337;52.070;4.508;2023-04-19T02:48:15;102875.34;;;7.74;100.00
49030;BME280;43337;52.070;4.508;2023-04-19T02:50:40;102879.72;;;7.79;100.00
49030;BME280;43337;52.070;4.508;2023-04-19T02:53:07;102881.47;;;7.83;100.00
49030;BME280;43337;52.070;4.508;2023-04-19T02:55:32;102868.38;;;7.87;100.00
49030;BME280;43337;52.070;4.508;2023-04-19T02:57:59;102875.38;;;7.91;100.00
49030;BME280;43337;52.070;4.508;2023-04-19T03:00:25;102866.63;;;7.90;100.00
49030;BME280;43337;52.070;4.508;2023-04-19T03:02:50;102874.50;;;7.98;100.00
49030;BME280;43337;52.070;4.508;2023-04-19T03:05:16;102884.13;;;8.02;100.00
49030;BME280;43337;52.070;4.508;2023-04-19T03:07:41;102874.50;;;8.01;100.00
49030;BME280;43337;52.070;4.508;2023-04-19T03:10:07;102874.50;;;8.07;100.00
49030;BME280;43337;52.070;4.508;2023-04-19T03:12:33;102848.28;;;7.96;100.00
49030;BME280;43337;52.070;4.508;2023-04-19T03:14:58;102885.91;;;8.15;100.00
49030;BME280;43337;52.070;4.508;2023-04-19T03:17:23;102878.03;;;8.12;100.00
49030;BME280;43337;52.070;4.508;2023-04-19T03:19:49;102874.50;;;8.18;100.00
49030;BME280;43337;52.070;4.508;2023-04-19T03:22:14;102872.78;;;8.20;100.00
49030;BME280;43337;52.070;4.508;2023-04-19T03:24:39;102878.91;;;8.26;100.00
49030;BME280;43337;52.070;4.508;2023-04-19T03:27:05;102872.75;;;8.26;100.00
49030;BME280;43337;52.070;4.508;2023-04-19T03:29:30;102872.78;;;8.30;100.00
49030;BME280;43337;52.070;4.508;2023-04-19T03:31:55;102877.16;;;8.31;100.00
49030;BME280;43337;52.070;4.508;2023-04-19T03:34:21;102872.78;;;8.32;100.00
49030;BME280;43337;52.070;4.508;2023-04-19T03:36:46;102873.66;;;8.36;100.00
49030;BME280;43337;52.070;4.508;2023-04-19T03:39:11;102860.53;;;8.34;100.00
49030;BME280;43337;52.070;4.508;2023-04-19T03:41:39;102863.16;;;8.36;100.00
49030;BME280;43337;52.070;4.508;2023-04-19T03:44:04;102855.28;;;8.36;100.00
49030;BME280;43337;52.070;4.508;2023-04-19T03:46:30;102865.81;;;8.42;100.00
49030;BME280;43337;52.070;4.508;2023-04-19T03:48:58;102859.66;;;8.41;100.00
49030;BME280;43337;52.070;4.508;2023-04-19T03:51:23;102865.78;;;8.45;100.00
49030;BME280;43337;52.070;4.508;2023-04-19T03:53:50;102865.78;;;8.48;100.00
49030;BME280;43337;52.070;4.508;2023-04-19T03:56:15;102858.81;;;8.47;100.00
49030;BME280;43337;52.070;4.508;2023-04-19T03:58:40;102861.41;;;8.51;100.00
49030;BME280;43337;52.070;4.508;2023-04-19T04:01:06;102860.56;;;8.49;100.00
49030;BME280;43337;52.070;4.508;2023-04-19T04:03:32;102861.41;;;8.51;100.00
49030;BME280;43337;52.070;4.508;2023-04-19T04:05:58;102871.03;;;8.55;100.00
49030;BME280;43337;52.070;4.508;2023-04-19T04:08:23;102870.16;;;8.52;100.00
49030;BME280;43337;52.070;4.508;2023-04-19T04:10:50;102863.13;;;8.57;100.00
49030;BME280;43337;52.070;4.508;2023-04-19T04:13:15;102863.13;;;8.60;100.00
49030;BME280;43337;52.070;4.508;2023-04-19T04:15:40;102857.03;;;8.58;100.00
49030;BME280;43337;52.070;4.508;2023-04-19T04:18:06;102866.66;;;8.62;100.00
49030;BME280;43337;52.070;4.508;2023-04-19T04:20:31;102867.53;;;8.58;100.00
49030;BME280;43337;52.070;4.508;2023-04-19T04:22:56;102870.13;;;8.64;100.00
49030;BME280;43337;52.070;4.508;2023-04-19T04:25:22;102871.91;;;8.56;100.00
49030;BME280;43337;52.070;4.508;2023-04-19T04:27:50;102878.91;;;8.66;100.00
49030;BME280;43337;52.070;4.508;2023-04-19T04:30:16;102870.13;;;8.67;100.00
49030;BME280;43337;52.070;4.508;2023-04-19T04:32:42;102881.53;;;8.66;100.00
49030;BME280;43337;52.070;4.508;2023-04-19T04:35:09;102864.91;;;8.63;100.00
49030;BME280;43337;52.070;4.508;2023-04-19T04:37:35;102866.63;;;8.64;100.00
49030;BME280;43337;52.070;4.508;2023-04-19T04:40:02;102868.38;;;8.68;100.00
49030;BME280;43337;52.070;4.508;2023-04-19T04:42:31;102875.38;;;8.73;100.00
49030;BME280;43337;52.070;4.508;2023-04-19T04:44:57;102871.00;;;8.74;100.00
49030;BME280;43337;52.070;4.508;2023-04-19T04:47:23;102871.88;;;8.74;100.00
49030;BME280;43337;52.070;4.508;2023-04-19T04:49:48;102876.25;;;8.75;100.00
49030;BME280;43337;52.070;4.508;2023-04-19T04:52:14;102885.91;;;8.76;100.00
49030;BME280;43337;52.070;4.508;2023-04-19T04:54:40;102879.75;;;8.77;100.00
49030;BME280;43337;52.070;4.508;2023-04-19T04:57:05;102864.88;;;8.72;100.00
49030;BME280;43337;52.070;4.508;2023-04-19T04:59:30;102881.50;;;8.78;100.00
49030;BME280;43337;52.070;4.508;2023-04-19T05:01:56;102866.63;;;8.71;100.00
49030;BME280;43337;52.070;4.508;2023-04-19T05:04:21;102877.13;;;8.79;100.00
49030;BME280;43337;52.070;4.508;2023-04-19T05:06:47;102885.84;;;8.83;100.00
49030;BME280;43337;52.070;4.508;2023-04-19T05:09:12;102877.13;;;8.80;100.00
49030;BME280;43337;52.070;4.508;2023-04-19T05:11:37;102871.84;;;8.79;100.00
49030;BME280;43337;52.070;4.508;2023-04-19T05:14:03;102874.50;;;8.80;100.00
49030;BME280;43337;52.070;4.508;2023-04-19T05:16:29;102886.72;;;8.86;100.00
49030;BME280;43337;52.070;4.508;2023-04-19T05:18:54;102896.38;;;8.86;100.00
49030;BME280;43337;52.070;4.508;2023-04-19T05:21:20;102883.25;;;8.83;100.00
49030;BME280;43337;52.070;4.508;2023-04-19T05:23:46;102884.09;;;8.80;100.00
49030;BME280;43337;52.070;4.508;2023-04-19T05:26:11;102878.00;;;8.72;100.00
49030;BME280;43337;52.070;4.508;2023-04-19T05:28:40;102885.88;;;8.75;100.00
49030;BME280;43337;52.070;4.508;2023-04-19T05:31:06;102854.41;;;8.50;100.00
49030;BME280;43337;52.070;4.508;2023-04-19T05:33:32;102887.66;;;8.64;100.00
49030;BME280;43337;52.070;4.508;2023-04-19T05:35:58;102880.66;;;8.61;100.00
49030;BME280;43337;52.070;4.508;2023-04-19T05:38:23;102892.03;;;8.62;100.00
49030;BME280;43337;52.070;4.508;2023-04-19T05:40:49;102896.41;;;8.61;100.00
49030;BME280;43337;52.070;4.508;2023-04-19T05:43:14;102910.38;;;8.65;100.00
49030;BME280;43337;52.070;4.508;2023-04-19T05:45:40;102892.03;;;8.59;100.00
49030;BME280;43337;52.070;4.508;2023-04-19T05:48:05;102901.66;;;8.66;100.00
49030;BME280;43337;52.070;4.508;2023-04-19T05:50:31;102913.03;;;8.71;100.00
49030;BME280;43337;52.070;4.508;2023-04-19T05:52:56;102899.00;;;8.72;100.00
49030;BME280;43337;52.070;4.508;2023-04-19T05:55:22;102900.75;;;8.79;100.00
49030;BME280;43337;52.070;4.508;2023-04-19T05:57:47;102913.88;;;8.85;100.00
49030;BME280;43337;52.070;4.508;2023-04-19T06:00:13;102908.63;;;8.90;100.00
49030;BME280;43337;52.070;4.508;2023-04-19T06:02:40;102906.84;;;8.90;100.00
49030;BME280;43337;52.070;4.508;2023-04-19T06:05:05;102903.38;;;8.93;100.00
49030;BME280;43337;52.070;4.508;2023-04-19T06:07:31;102916.47;;;9.08;100.00
49030;BME280;43337;52.070;4.508;2023-04-19T06:09:57;102912.94;;;9.14;100.00
49030;BME280;43337;52.070;4.508;2023-04-19T06:12:22;102905.94;;;9.11;100.00
49030;BME280;43337;52.070;4.508;2023-04-19T06:14:48;102912.91;;;9.23;100.00
49030;BME280;43337;52.070;4.508;2023-04-19T06:17:13;102905.91;;;9.19;100.00
49030;BME280;43337;52.070;4.508;2023-04-19T06:19:41;102910.25;;;9.26;100.00
49030;BME280;43337;52.070;4.508;2023-04-19T06:22:06;102903.25;;;9.31;100.00
49030;BME280;43337;52.070;4.508;2023-04-19T06:24:32;102903.22;;;9.39;100.00
49030;BME280;43337;52.070;4.508;2023-04-19T06:26:57;102882.22;;;9.31;100.00
49030;BME280;43337;52.070;4.508;2023-04-19T06:29:22;102906.66;;;9.48;100.00
49030;BME280;43337;52.070;4.508;2023-04-19T06:31:49;102907.53;;;9.53;100.00
49030;BME280;43337;52.070;4.508;2023-04-19T06:34:15;102911.00;;;9.56;100.00
49030;BME280;43337;52.070;4.508;2023-04-19T06:36:41;102905.72;;;9.65;100.00
49030;BME280;43337;52.070;4.508;2023-04-19T06:39:06;102908.28;;;9.71;100.00
49030;BME280;43337;52.070;4.508;2023-04-19T06:41:32;102907.41;;;9.73;100.00
49030;BME280;43337;52.070;4.508;2023-04-19T06:43:57;102919.66;;;9.81;100.00
49030;BME280;43337;52.070;4.508;2023-04-19T06:46:22;102896.03;;;9.73;100.00
49030;BME280;43337;52.070;4.508;2023-04-19T06:48:48;102921.34;;;9.92;100.00
49030;BME280;43337;52.070;4.508;2023-04-19T06:51:13;102915.19;;;9.93;100.00
49030;BME280;43337;52.070;4.508;2023-04-19T06:53:38;102916.91;;;10.00;100.00
49030;BME280;43337;52.070;4.508;2023-04-19T06:56:04;102924.78;;;10.03;100.00
49030;BME280;43337;52.070;4.508;2023-04-19T06:58:30;102908.06;;;10.06;100.00
49030;BME280;43337;52.070;4.508;2023-04-19T07:00:58;102915.91;;;10.15;100.00
49030;BME280;43337;52.070;4.508;2023-04-19T07:03:25;102912.34;;;10.25;100.00
49030;BME280;43337;52.070;4.508;2023-04-19T07:05:50;102913.16;;;10.34;100.00
49030;BME280;43337;52.070;4.508;2023-04-19T07:08:20;102918.38;;;10.40;100.00
49030;BME280;43337;52.070;4.508;2023-04-19T07:10:46;102905.16;;;10.44;100.00
49030;BME280;43337;52.070;4.508;2023-04-19T07:13:11;102906.81;;;10.59;100.00
49030;BME280;43337;52.070;4.508;2023-04-19T07:15:36;102913.78;;;10.63;100.00
49030;BME280;43337;52.070;4.508;2023-04-19T07:18:02;102904.91;;;10.72;100.00
49030;BME280;43337;52.070;4.508;2023-04-19T07:20:27;102907.47;;;10.80;100.00
49030;BME280;43337;52.070;4.508;2023-04-19T07:22:53;102912.66;;;10.89;100.00
49030;BME280;43337;52.070;4.508;2023-04-19T07:25:18;102914.38;;;10.93;100.00
49030;BME280;43337;52.070;4.508;2023-04-19T07:27:44;102909.84;;;11.03;100.00
49030;BME280;43337;52.070;4.508;2023-04-19T07:30:10;102921.22;;;11.11;100.00
49030;BME280;43337;52.070;4.508;2023-04-19T07:32:35;102904.50;;;11.10;100.00
49030;BME280;43337;52.070;4.508;2023-04-19T07:35:01;102902.72;;;11.15;100.00
49030;BME280;43337;52.070;4.508;2023-04-19T07:37:26;102902.63;;;11.21;100.00
49030;BME280;43337;52.070;4.508;2023-04-19T07:39:52;102904.25;;;11.32;100.00
49030;BME280;43337;52.070;4.508;2023-04-19T07:42:18;102895.28;;;11.46;100.00
49030;BME280;43337;52.070;4.508;2023-04-19T07:44:43;102883.84;;;11.47;100.00
49030;BME280;43337;52.070;4.508;2023-04-19T07:47:08;102892.59;;;11.51;100.00
49030;BME280;43337;52.070;4.508;2023-04-19T07:49:34;102896.91;;;11.55;99.06
49030;BME280;43337;52.070;4.508;2023-04-19T07:52:00;102898.66;;;11.56;98.81
49030;BME280;43337;52.070;4.508;2023-04-19T07:54:28;102895.13;;;11.59;98.35
49030;BME280;43337;52.070;4.508;2023-04-19T07:56:54;102886.34;;;11.57;98.50
49030;BME280;43337;52.070;4.508;2023-04-19T07:59:19;102883.66;;;11.61;95.76
49030;BME280;43337;52.070;4.508;2023-04-19T08:01:45;102903.69;;;11.74;94.51
49030;BME280;43337;52.070;4.508;2023-04-19T08:04:10;102895.69;;;11.79;93.50
49030;BME280;43337;52.070;4.508;2023-04-19T08:06:36;102894.78;;;11.83;92.08
49030;BME280;43337;52.070;4.508;2023-04-19T08:09:03;102894.69;;;11.91;93.54
49030;BME280;43337;52.070;4.508;2023-04-19T08:11:29;102892.78;;;12.01;91.90
49030;BME280;43337;52.070;4.508;2023-04-19T08:13:54;102901.44;;;12.09;90.57
49030;BME280;43337;52.070;4.508;2023-04-19T08:16:20;102897.94;;;12.08;89.34
49030;BME280;43337;52.070;4.508;2023-04-19T08:18:45;102896.13;;;12.10;88.15
49030;BME280;43337;52.070;4.508;2023-04-19T08:21:12;102893.47;;;12.13;87.33
49030;BME280;43337;52.070;4.508;2023-04-19T08:23:37;102892.50;;;12.17;88.15
49030;BME280;43337;52.070;4.508;2023-04-19T08:26:03;102880.09;;;12.24;86.58
49030;BME280;43337;52.070;4.508;2023-04-19T08:28:30;102878.19;;;12.34;87.41
49030;BME280;43337;52.070;4.508;2023-04-19T08:30:57;102884.09;;;12.46;86.30
49030;BME280;43337;52.070;4.508;2023-04-19T08:33:23;102891.91;;;12.53;83.35
49030;BME280;43337;52.070;4.508;2023-04-19T08:35:48;102884.75;;;12.61;83.87
49030;BME280;43337;52.070;4.508;2023-04-19T08:38:14;102868.06;;;12.57;81.52
49030;BME280;43337;52.070;4.508;2023-04-19T08:40:44;102866.19;;;12.62;79.81
49030;BME280;43337;52.070;4.508;2023-04-19T08:43:11;102889.66;;;12.81;81.54
49030;BME280;43337;52.070;4.508;2023-04-19T08:45:38;102887.72;;;12.89;81.10
49030;BME280;43337;52.070;4.508;2023-04-19T08:48:03;102883.13;;;12.99;80.10
49030;BME280;43337;52.070;4.508;2023-04-19T08:50:30;102898.84;;;13.06;75.17
49030;BME280;43337;52.070;4.508;2023-04-19T08:52:58;102875.13;;;13.03;67.09
49030;BME280;43337;52.070;4.508;2023-04-19T08:55:24;102888.16;;;13.12;75.16
49030;BME280;43337;52.070;4.508;2023-04-19T08:57:50;102885.25;;;13.26;72.05
49030;BME280;43337;52.070;4.508;2023-04-19T09:00:16;102879.78;;;13.35;70.30
49030;BME280;43337;52.070;4.508;2023-04-19T09:02:49;102871.03;;;13.32;59.68
49030;BME280;43337;52.070;4.508;2023-04-19T09:05:16;102871.63;;;13.44;66.00
49030;BME280;43337;52.070;4.508;2023-04-19T09:07:42;102887.41;;;13.49;65.00
49030;BME280;43337;52.070;4.508;2023-04-19T09:10:13;102881.00;;;13.61;64.43
49030;BME280;43337;52.070;4.508;2023-04-19T09:12:39;102881.69;;;13.67;65.27
49030;BME280;43337;52.070;4.508;2023-04-19T09:15:06;102874.63;;;13.68;61.51
49030;BME280;43337;52.070;4.508;2023-04-19T09:17:35;102877.19;;;13.73;59.74
49030;BME280;43337;52.070;4.508;2023-04-19T09:20:02;102879.03;;;13.69;59.56
49030;BME280;43337;52.070;4.508;2023-04-19T09:22:29;102878.06;;;13.72;60.12
49030;BME280;43337;52.070;4.508;2023-04-19T09:24:54;102864.78;;;13.75;60.49
49030;BME280;43337;52.070;4.508;2023-04-19T09:27:32;102873.38;;;13.84;56.30
49030;BME280;43337;52.070;4.508;2023-04-19T09:30:00;102868.97;;;13.83;56.89
49030;BME280;43337;52.070;4.508;2023-04-19T09:32:26;102872.53;;;13.82;55.97
49030;BME280;43337;52.070;4.508;2023-04-19T09:34:53;102871.56;;;13.86;56.60
49030;BME280;43337;52.070;4.508;2023-04-19T09:37:19;102840.75;;;13.82;54.80
49030;BME280;43337;52.070;4.508;2023-04-19T09:39:45;102862.63;;;13.92;53.95
49030;BME280;43337;52.070;4.508;2023-04-19T09:42:11;102856.34;;;13.96;53.06
49030;BME280;43337;52.070;4.508;2023-04-19T09:44:36;102837.94;;;13.90;53.60
49030;BME280;43337;52.070;4.508;2023-04-19T09:47:01;102845.50;;;14.05;52.99
49030;BME280;43337;52.070;4.508;2023-04-19T09:49:27;102855.84;;;14.16;53.31
49030;BME280;43337;52.070;4.508;2023-04-19T09:51:54;102844.19;;;14.23;51.66
49030;BME280;43337;52.070;4.508;2023-04-19T09:54:22;102845.03;;;14.24;51.12
49030;BME280;43337;52.070;4.508;2023-04-19T09:56:50;102848.63;;;14.21;49.71
49030;BME280;43337;52.070;4.508;2023-04-19T09:59:15;102845.09;;;14.22;50.03
49030;BME280;43337;52.070;4.508;2023-04-19T10:01:46;102843.13;;;14.30;48.45
49030;BME280;43337;52.070;4.508;2023-04-19T10:04:13;102847.34;;;14.37;48.76
49030;BME280;43337;52.070;4.508;2023-04-19T10:06:49;102841.16;;;14.37;49.12
49030;BME280;43337;52.070;4.508;2023-04-19T10:09:19;102849.94;;;14.39;48.04
49030;BME280;43337;52.070;4.508;2023-04-19T10:11:49;102849.09;;;14.37;45.45
49030;BME280;43337;52.070;4.508;2023-04-19T10:14:16;102851.75;;;14.37;47.32
49030;BME280;43337;52.070;4.508;2023-04-19T10:16:44;102829.00;;;14.30;47.48
49030;BME280;43337;52.070;4.508;2023-04-19T10:19:12;102841.00;;;14.43;47.50
49030;BME280;43337;52.070;4.508;2023-04-19T10:21:40;102843.47;;;14.51;47.57
49030;BME280;43337;52.070;4.508;2023-04-19T10:24:07;102852.16;;;14.57;47.10
49030;BME280;43337;52.070;4.508;2023-04-19T10:30:00;102853.88;;;14.58;41.26
49030;BME280;43337;52.070;4.508;2023-04-19T10:32:29;102845.56;;;14.72;46.24
49030;BME280;43337;52.070;4.508;2023-04-19T10:35:00;102831.50;;;14.69;43.49
49030;BME280;43337;52.070;4.508;2023-04-19T10:37:27;102843.78;;;14.73;45.56
49030;BME280;43337;52.070;4.508;2023-04-19T10:39:52;102833.31;;;14.67;45.31
49030;BME280;43337;52.070;4.508;2023-04-19T10:42:18;102842.13;;;14.69;44.65
49030;BME280;43337;52.070;4.508;2023-04-19T10:48:01;102830.84;;;14.60;44.16
49030;BME280;43337;52.070;4.508;2023-04-19T10:50:27;102833.38;;;14.65;44.20
49030;BME280;43337;52.070;4.508;2023-04-19T10:52:53;102819.94;;;14.71;43.74
49030;BME280;43337;52.070;4.508;2023-04-19T10:55:18;102828.03;;;14.67;42.86
49030;BME280;43337;52.070;4.508;2023-04-19T10:58:05;102833.25;;;14.70;39.59
49030;BME280;43337;52.070;4.508;2023-04-19T11:00:31;102812.41;;;14.87;43.91
49030;BME280;43337;52.070;4.508;2023-04-19T11:06:17;102818.75;;;15.12;41.06
49030;BME280;43337;52.070;4.508;2023-04-19T11:08:45;102812.13;;;15.26;44.42
49030;BME280;43337;52.070;4.508;2023-04-19T11:11:12;102814.44;;;15.38;44.18
49030;BME280;43337;52.070;4.508;2023-04-19T11:13:41;102823.28;;;15.38;43.47
49030;BME280;43337;52.070;4.508;2023-04-19T11:16:07;102807.50;;;15.34;42.93
49030;BME280;43337;52.070;4.508;2023-04-19T11:18:33;102814.56;;;15.33;42.87
49030;BME280;43337;52.070;4.508;2023-04-19T11:20:58;102819.78;;;15.36;43.07
49030;BME280;43337;52.070;4.508;2023-04-19T11:23:25;102821.56;;;15.36;43.18
49030;BME280;43337;52.070;4.508;2023-04-19T11:25:51;102805.63;;;15.37;43.35
49030;BME280;43337;52.070;4.508;2023-04-19T11:28:17;102805.69;;;15.34;43.19
49030;BME280;43337;52.070;4.508;2023-04-19T11:30:42;102801.25;;;15.35;43.38
49030;BME280;43337;52.070;4.508;2023-04-19T11:33:11;102806.47;;;15.38;43.07
49030;BME280;43337;52.070;4.508;2023-04-19T11:35:36;102792.13;;;15.44;44.58
49030;BME280;43337;52.070;4.508;2023-04-19T11:38:02;102790.25;;;15.47;44.10
49030;BME280;43337;52.070;4.508;2023-04-19T11:40:29;102787.28;;;15.56;43.70
49030;BME280;43337;52.070;4.508;2023-04-19T11:42:57;102796.81;;;15.65;43.84
49030;BME280;43337;52.070;4.508;2023-04-19T11:45:29;102776.22;;;15.72;42.92
49030;BME280;43337;52.070;4.508;2023-04-19T11:47:55;102783.66;;;15.87;43.63
49030;BME280;43337;52.070;4.508;2023-04-19T11:50:37;102791.25;;;15.99;41.68
49030;BME280;43337;52.070;4.508;2023-04-19T11:53:20;102778.81;;;16.00;41.75
49030;BME280;43337;52.070;4.508;2023-04-19T11:55:50;102772.66;;;15.99;43.34
49030;BME280;43337;52.070;4.508;2023-04-19T11:58:28;102760.66;;;15.88;40.52
49030;BME280;43337;52.070;4.508;2023-04-19T12:00:55;102767.25;;;16.01;42.55
49030;BME280;43337;52.070;4.508;2023-04-19T12:03:22;102775.34;;;15.98;41.88
49030;BME280;43337;52.070;4.508;2023-04-19T12:05:52;102762.22;;;15.93;40.85
49030;BME280;43337;52.070;4.508;2023-04-19T12:08:29;102764.72;;;15.98;38.49
49030;BME280;43337;52.070;4.508;2023-04-19T12:10:58;102764.25;;;16.11;41.09
49030;BME280;43337;52.070;4.508;2023-04-19T12:13:24;102758.84;;;16.15;41.39
49030;BME280;43337;52.070;4.508;2023-04-19T12:15:50;102770.16;;;16.20;41.41
49030;BME280;43337;52.070;4.508;2023-04-19T12:18:15;102751.66;;;16.17;41.00
49030;BME280;43337;52.070;4.508;2023-04-19T12:20:46;102752.41;;;16.20;39.34
49030;BME280;43337;52.070;4.508;2023-04-19T12:23:15;102737.34;;;16.21;38.84
49030;BME280;43337;52.070;4.508;2023-04-19T12:25:43;102742.66;;;16.21;40.77
49030;BME280;43337;52.070;4.508;2023-04-19T12:28:10;102729.44;;;16.19;40.65
49030;BME280;43337;52.070;4.508;2023-04-19T12:30:35;102746.16;;;16.21;40.38
49030;BME280;43337;52.070;4.508;2023-04-19T12:33:01;102746.66;;;16.32;40.74
49030;BME280;43337;52.070;4.508;2023-04-19T12:35:27;102734.94;;;16.38;40.44
49030;BME280;43337;52.070;4.508;2023-04-19T12:37:54;102739.84;;;16.49;40.31
49030;BME280;43337;52.070;4.508;2023-04-19T12:40:20;102739.47;;;16.59;40.04
49030;BME280;43337;52.070;4.508;2023-04-19T12:42:46;102750.63;;;16.69;39.44
49030;BME280;43337;52.070;4.508;2023-04-19T12:45:12;102734.84;;;16.65;38.95
49030;BME280;43337;52.070;4.508;2023-04-19T12:47:41;102736.78;;;16.59;38.60
49030;BME280;43337;52.070;4.508;2023-04-19T12:50:08;102723.84;;;16.50;38.88
49030;BME280;43337;52.070;4.508;2023-04-19T12:52:34;102734.03;;;16.63;39.10
49030;BME280;43337;52.070;4.508;2023-04-19T12:55:00;102721.22;;;16.74;38.63